Time;durP1;ratioP1;P1;durP2;ratioP2;P2;SDS_P1;SDS_P2;PMS_P1;PMS_P2;Temp;Humidity;BMP_temperature;BMP_pressure;BME280_temperature;BME280_humidity;BME280_pressure;Samples;Min_cycle;Max_cycle;Signal;HPM_P1;HPM_P2
2022/05/10 00:01:30;;;;;;;0.40;0.40;;;15.50;99.90;;;;;;5005264;28;20186;-82
2022/05/10 00:03:57;;;;;;;0.40;0.40;;;15.60;99.90;;;;;;5005498;28;20683;-82
2022/05/10 00:06:23;;;;;;;0.77;0.20;;;15.60;99.90;;;;;;4997995;28;20183;-81
2022/05/10 00:08:49;;;;;;;0.83;0.70;;;15.60;99.90;;;;;;5005313;28;20190;-81
2022/05/10 00:11:15;;;;;;;0.43;0.43;;;15.60;99.90;;;;;;5005429;28;20194;-82
2022/05/10 00:13:40;;;;;;;0.40;0.40;;;15.60;99.90;;;;;;4999568;28;20247;-81
2022/05/10 00:16:11;;;;;;;0.67;0.67;;;15.60;99.90;;;;;;5005238;28;20225;-80
2022/05/10 00:18:37;;;;;;;0.40;0.40;;;15.60;99.90;;;;;;5004851;28;20583;-81
2022/05/10 00:21:02;;;;;;;0.33;0.33;;;15.60;99.90;;;;;;5004088;28;20202;-81
2022/05/10 00:23:28;;;;;;;0.20;0.20;;;15.60;99.90;;;;;;5004799;28;20218;-81
2022/05/10 00:25:53;;;;;;;1.17;1.10;;;15.50;99.90;;;;;;4998150;28;20190;-81
2022/05/10 00:28:19;;;;;;;0.70;0.30;;;15.60;99.90;;;;;;5005310;28;20183;-80
2022/05/10 00:30:44;;;;;;;0.50;0.50;;;15.50;99.90;;;;;;5004476;28;20176;-81
2022/05/10 00:33:16;;;;;;;0.83;0.83;;;15.50;99.90;;;;;;4999853;28;20210;-81
2022/05/10 00:35:41;;;;;;;0.33;0.33;;;15.50;99.90;;;;;;4999051;28;20180;-81
2022/05/10 00:38:07;;;;;;;0.40;0.40;;;15.50;99.90;;;;;;5005499;28;20207;-81
2022/05/10 00:40:36;;;;;;;0.20;0.20;;;15.50;99.90;;;;;;5015455;28;20242;-80
2022/05/10 00:43:23;;;;;;;0.37;0.30;;;15.50;99.90;;;;;;5003281;28;20277;-81
2022/05/10 00:46:02;;;;;;;0.40;0.40;;;15.50;99.90;;;;;;4998533;28;20235;-81
2022/05/10 00:48:32;;;;;;;0.40;0.40;;;15.50;99.90;;;;;;5000150;28;20198;-81
2022/05/10 00:51:32;;;;;;;0.40;0.40;;;15.40;99.90;;;;;;4998883;28;20202;-82
2022/05/10 00:54:25;;;;;;;0.87;0.50;;;15.40;99.90;;;;;;4987648;28;20223;-81
2022/05/10 00:56:58;;;;;;;0.60;0.60;;;15.40;99.90;;;;;;5014243;28;20211;-81
2022/05/10 00:59:41;;;;;;;0.43;0.40;;;15.50;99.90;;;;;;4999013;28;20183;-81
2022/05/10 01:02:19;;;;;;;0.53;0.53;;;15.40;99.90;;;;;;5003792;28;20178;-81
2022/05/10 01:04:51;;;;;;;0.30;0.30;;;15.40;99.90;;;;;;4999834;28;20293;-82
2022/05/10 01:07:28;;;;;;;0.73;0.50;;;15.30;99.90;;;;;;4997291;28;20199;-80
2022/05/10 01:09:59;;;;;;;0.60;0.40;;;15.30;99.90;;;;;;5004378;28;20186;-81
2022/05/10 01:12:46;;;;;;;0.50;0.50;;;15.30;99.90;;;;;;4998151;28;20249;-81
2022/05/10 01:15:25;;;;;;;0.53;0.53;;;15.40;99.90;;;;;;5013270;28;20345;-81
2022/05/10 01:17:55;;;;;;;0.30;0.30;;;15.40;99.90;;;;;;5004676;28;20280;-81
2022/05/10 01:20:41;;;;;;;0.60;0.53;;;15.40;99.90;;;;;;4997840;28;20175;-82
2022/05/10 01:23:33;;;;;;;0.70;0.50;;;15.40;99.90;;;;;;4997971;28;20641;-80
2022/05/10 01:26:28;;;;;;;1.43;0.77;;;15.30;99.90;;;;;;5002870;28;20198;-81
2022/05/10 01:29:06;;;;;;;0.50;0.50;;;15.40;99.90;;;;;;4991980;28;20191;-81
2022/05/10 01:31:45;;;;;;;1.70;0.67;;;15.40;99.90;;;;;;4998193;28;20190;-82
2022/05/10 01:34:17;;;;;;;0.80;0.73;;;15.30;99.90;;;;;;4998646;28;20268;-81
2022/05/10 01:36:55;;;;;;;0.67;0.60;;;15.20;99.90;;;;;;4998715;28;20190;-81
2022/05/10 01:39:31;;;;;;;2.90;1.10;;;15.10;99.90;;;;;;4997667;28;20594;-84
2022/05/10 01:42:22;;;;;;;0.80;0.80;;;15.10;99.90;;;;;;4996319;28;20216;-84
2022/05/10 01:45:00;;;;;;;0.60;0.60;;;15.10;99.90;;;;;;5002534;28;20218;-83
2022/05/10 01:47:33;;;;;;;0.77;0.77;;;15.00;99.90;;;;;;4996789;28;20187;-83
2022/05/10 01:50:19;;;;;;;0.60;0.60;;;15.00;99.90;;;;;;4997693;28;20204;-84
2022/05/10 01:52:51;;;;;;;0.90;0.90;;;15.00;99.90;;;;;;4996768;28;20210;-83
2022/05/10 01:55:25;;;;;;;0.70;0.70;;;15.00;99.90;;;;;;4998921;28;20190;-83
2022/05/10 01:57:53;;;;;;;0.80;0.80;;;15.00;99.90;;;;;;5012772;28;20187;-83
2022/05/10 02:00:22;;;;;;;0.40;0.40;;;14.90;99.90;;;;;;5005083;28;20668;-83
2022/05/10 02:02:59;;;;;;;0.40;0.40;;;14.90;99.90;;;;;;5004000;28;20558;-84
2022/05/10 02:05:52;;;;;;;0.30;0.30;;;14.90;99.90;;;;;;4998226;28;20559;-84
2022/05/10 02:08:55;;;;;;;0.63;0.63;;;14.90;99.90;;;;;;4997822;28;20217;-84
2022/05/10 02:11:22;;;;;;;0.43;0.30;;;14.90;99.90;;;;;;4997955;28;20236;-83
2022/05/10 02:14:01;;;;;;;0.67;0.67;;;14.90;99.90;;;;;;4997749;28;20223;-83
2022/05/10 02:16:42;;;;;;;0.70;0.70;;;14.90;99.90;;;;;;5013673;28;20174;-84
2022/05/10 02:19:24;;;;;;;0.80;0.80;;;14.90;99.90;;;;;;5001264;28;20186;-83
2022/05/10 02:22:09;;;;;;;0.70;0.70;;;14.90;99.90;;;;;;5001963;28;20179;-83
2022/05/10 02:24:45;;;;;;;0.93;0.93;;;14.80;99.90;;;;;;5007433;28;20218;-83
2022/05/10 02:27:21;;;;;;;0.67;0.67;;;14.80;99.90;;;;;;5000859;28;20187;-83
2022/05/10 02:30:01;;;;;;;0.67;0.67;;;14.80;99.90;;;;;;5001842;28;20226;-83
2022/05/10 02:35:20;;;;;;;0.50;0.50;;;14.70;99.90;;;;;;5001135;28;20179;-84
2022/05/10 02:37:46;;;;;;;1.10;1.00;;;14.60;99.90;;;;;;5001978;28;20190;-85
2022/05/10 02:40:13;;;;;;;0.57;0.57;;;14.70;99.90;;;;;;5001505;28;20194;-83
2022/05/10 02:42:38;;;;;;;1.67;0.77;;;14.70;99.90;;;;;;5000947;28;20198;-83
2022/05/10 02:45:05;;;;;;;0.50;0.50;;;14.70;99.90;;;;;;5000377;28;20211;-84
2022/05/10 02:47:37;;;;;;;0.50;0.50;;;14.70;99.90;;;;;;5002703;28;20399;-83
2022/05/10 02:50:11;;;;;;;0.50;0.50;;;14.60;99.90;;;;;;5006722;28;20620;-83
2022/05/10 02:52:39;;;;;;;0.30;0.30;;;14.60;99.90;;;;;;5006832;28;20206;-84
2022/05/10 02:55:27;;;;;;;0.90;0.90;;;14.60;99.90;;;;;;5001223;28;20201;-83
2022/05/10 02:58:00;;;;;;;1.27;0.90;;;14.60;99.90;;;;;;5016357;28;20198;-84
2022/05/10 03:00:27;;;;;;;0.30;0.30;;;14.50;99.90;;;;;;5001864;28;20223;-83
2022/05/10 03:02:58;;;;;;;0.50;0.50;;;14.50;99.90;;;;;;5001172;28;20206;-83
2022/05/10 03:05:24;;;;;;;0.90;0.90;;;14.50;99.90;;;;;;5016924;28;20187;-83
2022/05/10 03:07:52;;;;;;;1.50;0.73;;;14.50;99.90;;;;;;5016577;28;20199;-84
2022/05/10 03:10:19;;;;;;;0.83;0.83;;;14.40;99.90;;;;;;5000375;28;20241;-83
2022/05/10 03:12:44;;;;;;;0.70;0.70;;;14.40;99.90;;;;;;5007348;28;20220;-83
2022/05/10 03:15:10;;;;;;;0.53;0.50;;;14.40;99.90;;;;;;5000650;28;20188;-85
2022/05/10 03:17:35;;;;;;;0.60;0.40;;;14.30;99.90;;;;;;5015370;28;20591;-83
2022/05/10 03:20:01;;;;;;;0.80;0.57;;;14.30;99.90;;;;;;5000467;28;20188;-84
2022/05/10 03:22:27;;;;;;;0.77;0.47;;;14.40;99.90;;;;;;5000027;28;20175;-84
2022/05/10 03:24:52;;;;;;;0.53;0.53;;;14.30;99.90;;;;;;5000704;28;20243;-83
2022/05/10 03:27:18;;;;;;;0.57;0.43;;;14.30;99.90;;;;;;5000999;28;20197;-84
2022/05/10 03:29:44;;;;;;;0.20;0.20;;;14.20;99.90;;;;;;5015553;28;20195;-83
2022/05/10 03:32:10;;;;;;;0.30;0.30;;;14.30;99.90;;;;;;5006652;28;20206;-84
2022/05/10 03:34:54;;;;;;;0.53;0.50;;;14.30;99.90;;;;;;5007142;28;20221;-84
2022/05/10 03:37:19;;;;;;;0.50;0.50;;;14.30;99.90;;;;;;5006769;28;22612;-84
2022/05/10 03:39:45;;;;;;;0.37;0.37;;;14.30;99.90;;;;;;5014939;28;20278;-84
2022/05/10 03:42:10;;;;;;;0.30;0.30;;;14.40;99.90;;;;;;5000674;28;20195;-84
2022/05/10 03:44:36;;;;;;;0.50;0.50;;;14.30;99.90;;;;;;5000084;28;20212;-84
2022/05/10 03:47:02;;;;;;;0.93;0.70;;;14.30;99.90;;;;;;5013966;28;20221;-83
2022/05/10 03:49:28;;;;;;;0.40;0.40;;;14.30;99.90;;;;;;4999437;28;20230;-85
2022/05/10 03:51:54;;;;;;;1.40;0.50;;;14.30;99.90;;;;;;5014601;28;20219;-84
2022/05/10 03:54:23;;;;;;;0.27;0.27;;;14.20;99.90;;;;;;5005575;28;20206;-84
2022/05/10 03:56:50;;;;;;;0.53;0.53;;;14.30;99.90;;;;;;4999021;28;20202;-85
2022/05/10 03:59:16;;;;;;;0.40;0.33;;;14.30;99.90;;;;;;5005665;28;20206;-86
2022/05/10 04:01:42;;;;;;;0.87;0.63;;;14.30;99.90;;;;;;5016806;28;20191;-84
2022/05/10 04:04:08;;;;;;;0.93;0.67;;;14.40;99.90;;;;;;5002227;28;22730;-84
2022/05/10 04:06:33;;;;;;;0.50;0.50;;;14.50;99.90;;;;;;5002344;28;20207;-83
2022/05/10 04:08:59;;;;;;;0.50;0.43;;;14.70;99.90;;;;;;5005740;28;20217;-83
2022/05/10 04:11:24;;;;;;;0.30;0.30;;;14.80;99.90;;;;;;4999591;28;20179;-83
2022/05/10 04:13:50;;;;;;;0.30;0.30;;;14.90;99.90;;;;;;4997687;28;20215;-83
2022/05/10 04:16:16;;;;;;;0.73;0.70;;;14.90;99.90;;;;;;5014266;28;20725;-84
2022/05/10 04:18:42;;;;;;;2.90;0.60;;;15.00;99.90;;;;;;5005936;28;20244;-83
2022/05/10 04:21:08;;;;;;;1.70;1.23;;;15.00;99.90;;;;;;4999260;28;20172;-83
2022/05/10 04:23:34;;;;;;;0.57;0.57;;;15.00;99.90;;;;;;5006139;28;20222;-84
2022/05/10 04:26:08;;;;;;;1.33;0.63;;;15.10;99.90;;;;;;5006710;28;20214;-83
2022/05/10 04:28:35;;;;;;;2.83;0.40;;;15.10;99.90;;;;;;4999905;28;20193;-84
2022/05/10 04:31:01;;;;;;;0.97;0.83;;;15.20;99.90;;;;;;5006687;28;20209;-84
2022/05/10 04:33:27;;;;;;;0.93;0.87;;;15.20;99.90;;;;;;4999964;28;20242;-83
2022/05/10 04:35:53;;;;;;;0.43;0.40;;;15.20;99.90;;;;;;5016263;28;20734;-83
2022/05/10 04:38:19;;;;;;;0.67;0.67;;;15.20;99.90;;;;;;5005627;28;20189;-84
2022/05/10 04:43:31;;;;;;;0.63;0.57;;;15.30;99.90;;;;;;4999733;28;20253;-83
2022/05/10 04:45:56;;;;;;;0.83;0.60;;;15.30;99.90;;;;;;5014751;28;20276;-83
2022/05/10 04:48:22;;;;;;;0.50;0.50;;;15.40;99.90;;;;;;5005137;28;20303;-84
2022/05/10 04:50:48;;;;;;;0.37;0.37;;;15.40;99.90;;;;;;5005075;28;20666;-83
2022/05/10 04:53:14;;;;;;;0.53;0.53;;;15.50;99.90;;;;;;4998361;28;20211;-84
2022/05/10 04:55:39;;;;;;;0.77;0.77;;;15.60;99.90;;;;;;5005140;28;20683;-85
2022/05/10 04:58:05;;;;;;;5.10;0.77;;;15.60;99.90;;;;;;5013105;28;20261;-84
2022/05/10 05:00:31;;;;;;;1.17;1.03;;;15.70;99.90;;;;;;5004841;28;20196;-84
2022/05/10 05:02:56;;;;;;;0.63;0.63;;;15.70;99.90;;;;;;5004602;28;20673;-85
2022/05/10 05:05:22;;;;;;;1.33;1.00;;;15.70;99.90;;;;;;4998303;28;20564;-84
2022/05/10 05:07:48;;;;;;;0.60;0.60;;;15.80;99.90;;;;;;5004254;28;20735;-83
2022/05/10 05:10:13;;;;;;;0.67;0.60;;;15.90;99.90;;;;;;5000745;28;20290;-84
2022/05/10 05:12:39;;;;;;;0.63;0.63;;;15.90;99.90;;;;;;5004546;28;20207;-83
2022/05/10 05:15:07;;;;;;;0.90;0.83;;;15.90;99.90;;;;;;4997581;28;20679;-84
2022/05/10 05:17:33;;;;;;;3.00;0.97;;;15.90;99.90;;;;;;4998486;28;20194;-83
2022/05/10 05:19:59;;;;;;;0.93;0.93;;;15.90;99.90;;;;;;5004269;28;20313;-83
2022/05/10 05:22:26;;;;;;;0.70;0.70;;;15.90;99.90;;;;;;5012999;28;20187;-83
2022/05/10 05:24:52;;;;;;;0.60;0.60;;;15.90;99.90;;;;;;4997973;28;21316;-83
2022/05/10 05:27:19;;;;;;;0.63;0.63;;;15.90;99.90;;;;;;5012833;28;20222;-82
2022/05/10 05:29:45;;;;;;;0.73;0.47;;;16.10;99.90;;;;;;5004333;28;20194;-83
2022/05/10 05:32:11;;;;;;;0.50;0.50;;;16.20;99.90;;;;;;5001136;28;20266;-84
2022/05/10 05:34:37;;;;;;;0.67;0.60;;;16.40;99.90;;;;;;5001333;28;20207;-84
2022/05/10 05:39:48;;;;;;;2.97;0.67;;;16.40;99.90;;;;;;4998537;28;20196;-83
2022/05/10 05:42:13;;;;;;;0.40;0.40;;;16.50;99.90;;;;;;4998024;28;20194;-83
2022/05/10 05:44:39;;;;;;;0.80;0.80;;;16.50;99.90;;;;;;4998114;28;20243;-83
2022/05/10 05:47:05;;;;;;;0.63;0.63;;;16.50;99.90;;;;;;4997511;28;20187;-82
2022/05/10 05:49:31;;;;;;;0.80;0.80;;;16.70;99.90;;;;;;5011621;28;20718;-83
2022/05/10 05:52:01;;;;;;;0.50;0.50;;;16.80;99.90;;;;;;4998048;28;20282;-83
2022/05/10 05:54:27;;;;;;;0.97;0.97;;;16.80;99.90;;;;;;4996553;28;20620;-83
2022/05/10 05:57:04;;;;;;;1.73;0.77;;;16.90;99.90;;;;;;5005824;28;20272;-83
2022/05/10 05:59:30;;;;;;;0.60;0.60;;;17.20;99.90;;;;;;4997072;28;20743;-83
2022/05/10 06:01:56;;;;;;;1.50;0.50;;;17.30;99.90;;;;;;4997221;28;20285;-83
2022/05/10 06:04:21;;;;;;;1.00;1.00;;;17.40;99.90;;;;;;4997466;28;20207;-83
2022/05/10 06:06:47;;;;;;;0.80;0.50;;;17.60;99.90;;;;;;4999013;28;20199;-83
2022/05/10 06:09:12;;;;;;;0.90;0.90;;;17.70;99.90;;;;;;5011680;28;20233;-84
2022/05/10 06:11:41;;;;;;;0.73;0.57;;;17.80;99.90;;;;;;4999282;28;20752;-84
2022/05/10 06:14:07;;;;;;;0.93;0.70;;;18.00;99.90;;;;;;5011289;28;21244;-84
2022/05/10 06:16:33;;;;;;;1.10;1.00;;;18.00;99.90;;;;;;5001047;28;20268;-83
2022/05/10 06:18:59;;;;;;;1.73;1.00;;;18.10;99.90;;;;;;5000184;28;21060;-81
2022/05/10 06:21:24;;;;;;;0.87;0.70;;;18.10;99.90;;;;;;4998259;28;20175;-80
2022/05/10 06:23:50;;;;;;;0.60;0.60;;;18.20;99.90;;;;;;4998276;28;20211;-81
2022/05/10 06:26:15;;;;;;;0.40;0.40;;;18.30;99.90;;;;;;4997569;28;20191;-81
2022/05/10 06:28:41;;;;;;;1.30;1.00;;;18.30;99.90;;;;;;4998365;28;20195;-81
2022/05/10 06:31:09;;;;;;;1.17;0.90;;;18.40;99.90;;;;;;4995941;28;20195;-81
2022/05/10 06:33:35;;;;;;;0.90;0.90;;;18.40;99.90;;;;;;5004156;28;20235;-81
2022/05/10 06:36:01;;;;;;;1.37;0.90;;;18.60;99.90;;;;;;4996394;28;20179;-81
2022/05/10 06:38:29;;;;;;;0.80;0.80;;;18.50;99.90;;;;;;5011289;28;20519;-80
2022/05/10 06:40:56;;;;;;;1.80;0.97;;;18.50;99.90;;;;;;5003289;28;20176;-80
2022/05/10 06:43:22;;;;;;;1.80;0.57;;;18.50;99.90;;;;;;5002639;28;20426;-80
2022/05/10 06:45:48;;;;;;;1.30;0.90;;;18.50;99.90;;;;;;4997571;28;20182;-81
2022/05/10 06:48:15;;;;;;;1.00;0.90;;;18.60;99.90;;;;;;5001379;28;20603;-81
2022/05/10 06:50:42;;;;;;;1.17;0.73;;;18.60;99.90;;;;;;4997049;28;20714;-80
2022/05/10 06:53:09;;;;;;;0.80;0.67;;;18.70;99.90;;;;;;4996578;28;20236;-81
2022/05/10 06:55:36;;;;;;;0.60;0.60;;;18.80;99.90;;;;;;5002374;28;20190;-81
2022/05/10 06:58:03;;;;;;;0.47;0.37;;;18.90;99.90;;;;;;4995417;28;20184;-81
2022/05/10 07:00:29;;;;;;;0.57;0.57;;;19.10;99.90;;;;;;4998848;28;20176;-81
2022/05/10 07:02:55;;;;;;;1.23;0.63;;;19.10;99.90;;;;;;4997889;28;20190;-81
2022/05/10 07:05:21;;;;;;;1.37;1.00;;;19.30;99.90;;;;;;5000505;28;20248;-80
2022/05/10 07:07:47;;;;;;;0.33;0.33;;;19.40;99.90;;;;;;5000066;28;20207;-81
2022/05/10 07:10:15;;;;;;;1.30;1.00;;;19.40;99.90;;;;;;5006764;28;20188;-81
2022/05/10 07:12:43;;;;;;;1.63;1.00;;;19.60;99.90;;;;;;5000386;28;20195;-81
2022/05/10 07:15:12;;;;;;;1.73;0.97;;;19.70;99.90;;;;;;5014580;28;20209;-79
2022/05/10 07:17:38;;;;;;;1.80;1.13;;;19.70;99.90;;;;;;4999029;28;20189;-79
2022/05/10 07:20:06;;;;;;;0.60;0.60;;;19.80;99.90;;;;;;5016323;28;20249;-79
2022/05/10 07:22:32;;;;;;;1.00;0.90;;;19.90;99.90;;;;;;4998384;28;20182;-79
2022/05/10 07:24:57;;;;;;;3.50;1.27;;;19.90;99.90;;;;;;5014751;28;20264;-79
2022/05/10 07:27:22;;;;;;;1.03;0.83;;;20.10;99.90;;;;;;5000766;28;21271;-80
2022/05/10 07:29:48;;;;;;;1.20;1.10;;;20.20;99.90;;;;;;5015106;28;20280;-80
2022/05/10 07:32:14;;;;;;;1.10;1.10;;;20.30;99.90;;;;;;5012618;28;20257;-79
2022/05/10 07:34:41;;;;;;;0.93;0.90;;;20.30;99.90;;;;;;5005049;28;20212;-79
2022/05/10 07:37:07;;;;;;;0.73;0.73;;;20.40;99.90;;;;;;4998676;28;20654;-79
2022/05/10 07:39:32;;;;;;;0.80;0.80;;;20.40;99.90;;;;;;5004728;28;20212;-80
2022/05/10 07:41:59;;;;;;;0.60;0.60;;;20.60;99.90;;;;;;4997731;28;20179;-81
2022/05/10 07:44:25;;;;;;;0.60;0.60;;;20.70;99.90;;;;;;5002758;28;20206;-81
2022/05/10 07:46:50;;;;;;;0.80;0.80;;;20.90;99.90;;;;;;4998748;28;20191;-82
2022/05/10 07:49:16;;;;;;;0.50;0.50;;;21.00;99.90;;;;;;5006116;28;20198;-81
2022/05/10 07:51:42;;;;;;;0.90;0.60;;;21.10;99.90;;;;;;5013356;28;20211;-83
2022/05/10 07:54:07;;;;;;;0.73;0.73;;;21.30;99.90;;;;;;5004295;28;20298;-81
2022/05/10 07:56:33;;;;;;;0.80;0.80;;;21.60;99.90;;;;;;4999274;28;20198;-82
2022/05/10 07:58:59;;;;;;;0.70;0.70;;;21.70;99.90;;;;;;4998118;28;20194;-80
2022/05/10 08:01:26;;;;;;;0.83;0.80;;;22.00;99.90;;;;;;4994631;28;20191;-79
2022/05/10 08:03:51;;;;;;;3.70;0.73;;;22.10;99.90;;;;;;5003536;28;20225;-81
2022/05/10 08:06:17;;;;;;;1.07;0.70;;;22.40;99.90;;;;;;5004239;28;20191;-81
2022/05/10 08:08:43;;;;;;;6.00;0.70;;;22.70;99.90;;;;;;5005185;28;20238;-81
2022/05/10 08:11:09;;;;;;;0.60;0.60;;;23.00;99.90;;;;;;4997575;28;20221;-81
2022/05/10 08:13:37;;;;;;;0.50;0.50;;;23.40;99.90;;;;;;5004618;28;20274;-81
2022/05/10 08:16:03;;;;;;;0.70;0.70;;;23.50;99.90;;;;;;5013787;28;20193;-81
2022/05/10 08:18:28;;;;;;;0.90;0.90;;;23.70;99.90;;;;;;5005346;28;20302;-81
2022/05/10 08:20:58;;;;;;;1.13;0.63;;;23.10;99.90;;;;;;4998244;28;21202;-81
2022/05/10 08:23:26;;;;;;;1.10;1.10;;;23.10;99.90;;;;;;5004957;28;20287;-81
2022/05/10 08:25:56;;;;;;;1.43;1.20;;;23.00;99.90;;;;;;4997349;28;20254;-81
2022/05/10 08:28:23;;;;;;;0.80;0.80;;;23.00;99.90;;;;;;4996306;28;20249;-82
2022/05/10 08:30:49;;;;;;;2.10;1.70;;;23.20;99.90;;;;;;5014495;28;20601;-82
2022/05/10 08:33:18;;;;;;;0.73;0.63;;;23.20;99.90;;;;;;4998804;28;20294;-81
2022/05/10 08:35:44;;;;;;;1.43;0.63;;;23.30;99.90;;;;;;4997955;28;20689;-81
2022/05/10 08:38:09;;;;;;;0.73;0.73;;;23.40;99.90;;;;;;5013768;28;20184;-82
2022/05/10 08:40:41;;;;;;;1.47;0.77;;;23.40;99.90;;;;;;4999121;28;20857;-82
2022/05/10 08:43:13;;;;;;;0.60;0.60;;;23.50;99.90;;;;;;5000527;28;20188;-82
2022/05/10 08:45:43;;;;;;;0.90;0.90;;;23.50;99.90;;;;;;5014723;28;20182;-82
2022/05/10 08:48:09;;;;;;;0.80;0.80;;;23.60;99.90;;;;;;4998462;28;20188;-81
2022/05/10 08:50:36;;;;;;;1.40;1.27;;;23.70;99.90;;;;;;4998318;28;20188;-82
2022/05/10 08:53:01;;;;;;;1.60;1.23;;;23.80;99.90;;;;;;4997623;28;20205;-82
2022/05/10 08:55:30;;;;;;;0.93;0.87;;;23.90;99.90;;;;;;4998784;28;20726;-82
2022/05/10 08:58:07;;;;;;;1.37;0.80;;;24.30;99.90;;;;;;5013914;28;20195;-82
2022/05/10 09:00:43;;;;;;;0.67;0.67;;;24.00;99.90;;;;;;4999184;28;20182;-82
2022/05/10 09:03:38;;;;;;;1.07;0.97;;;24.20;99.90;;;;;;4999194;28;20202;-82
2022/05/10 09:06:34;;;;;;;2.50;1.20;;;24.40;99.90;;;;;;4998410;28;20210;-82
2022/05/10 09:09:32;;;;;;;7.33;1.30;;;23.80;99.90;;;;;;5000481;28;20792;-82
2022/05/10 09:12:12;;;;;;;2.10;1.63;;;24.40;99.90;;;;;;4999782;28;20187;-83
2022/05/10 09:14:48;;;;;;;0.63;0.63;;;24.70;99.90;;;;;;5005467;28;20227;-82
2022/05/10 09:17:17;;;;;;;1.47;1.37;;;24.90;99.90;;;;;;5000429;28;20189;-85
2022/05/10 09:19:43;;;;;;;0.90;0.90;;;25.10;99.90;;;;;;5015410;28;20187;-84
2022/05/10 09:22:47;;;;;;;2.63;1.97;;;25.30;99.90;;;;;;4999064;28;20684;-84
2022/05/10 09:25:24;;;;;;;1.80;1.23;;;24.70;99.90;;;;;;5013184;28;20213;-84
2022/05/10 09:27:52;;;;;;;2.27;2.07;;;24.80;99.90;;;;;;5014980;28;20243;-81
2022/05/10 09:30:33;;;;;;;1.50;1.40;;;24.10;99.90;;;;;;4997050;28;20234;-81
2022/05/10 09:36:06;;;;;;;1.93;1.73;;;24.50;99.90;;;;;;4997794;28;20226;-81
2022/05/10 09:38:34;;;;;;;1.13;1.07;;;24.80;99.90;;;;;;4998118;28;20194;-81
2022/05/10 09:41:00;;;;;;;0.97;0.90;;;25.30;99.90;;;;;;5013151;28;20735;-81
2022/05/10 09:43:33;;;;;;;2.80;1.30;;;25.30;99.90;;;;;;4996606;28;20298;-81
2022/05/10 09:46:07;;;;;;;1.50;1.40;;;25.60;99.90;;;;;;4999233;28;20241;-81
2022/05/10 09:48:34;;;;;;;3.03;1.97;;;25.80;99.90;;;;;;4996620;28;20198;-81
2022/05/10 09:51:02;;;;;;;3.43;2.67;;;25.90;99.90;;;;;;4996066;28;20708;-81
2022/05/10 09:53:33;;;;;;;1.20;1.20;;;25.90;99.90;;;;;;4996656;28;20607;-81
2022/05/10 09:56:04;;;;;;;4.73;2.00;;;25.80;99.90;;;;;;5014196;28;20222;-82
2022/05/10 09:58:41;;;;;;;1.97;1.50;;;25.60;99.90;;;;;;4996985;28;20190;-80
2022/05/10 10:01:15;;;;;;;2.87;1.77;;;25.70;99.90;;;;;;4996995;28;20183;-79
2022/05/10 10:03:43;;;;;;;1.30;1.20;;;25.90;99.90;;;;;;4997819;28;20211;-79
2022/05/10 10:06:18;;;;;;;1.87;1.60;;;25.90;99.90;;;;;;4996231;28;20192;-79
2022/05/10 10:08:49;;;;;;;1.30;1.13;;;25.80;99.90;;;;;;4997922;28;20296;-79
2022/05/10 10:11:21;;;;;;;0.80;0.80;;;25.90;99.90;;;;;;4996789;28;20188;-82
2022/05/10 10:13:54;;;;;;;1.93;1.20;;;25.90;99.90;;;;;;5014089;28;20238;-82
2022/05/10 10:16:26;;;;;;;0.90;0.90;;;26.00;99.90;;;;;;4996538;28;20179;-80
2022/05/10 10:19:01;;;;;;;1.60;1.07;;;26.30;99.90;;;;;;5010301;28;20191;-80
2022/05/10 10:21:32;;;;;;;1.20;1.10;;;26.30;99.90;;;;;;4995591;28;21103;-79
2022/05/10 10:24:00;;;;;;;1.40;1.20;;;26.40;99.90;;;;;;4996512;28;20206;-80
2022/05/10 10:26:44;;;;;;;1.80;1.30;;;26.70;99.90;;;;;;4996140;28;20187;-80
2022/05/10 10:29:25;;;;;;;1.57;1.17;;;26.90;99.90;;;;;;4998237;28;20187;-81
2022/05/10 10:32:04;;;;;;;1.30;0.90;;;27.00;99.90;;;;;;4999403;28;20194;-81
2022/05/10 10:34:49;;;;;;;1.60;1.30;;;27.20;99.90;;;;;;4999533;28;20208;-83
2022/05/10 10:37:24;;;;;;;1.20;1.07;;;27.20;99.90;;;;;;4999433;28;20183;-81
2022/05/10 10:40:33;;;;;;;1.33;1.23;;;27.20;99.90;;;;;;5010395;28;20194;-81
2022/05/10 10:43:14;;;;;;;1.33;1.23;;;27.40;99.90;;;;;;5006274;28;20214;-83
2022/05/10 10:46:07;;;;;;;1.50;1.13;;;27.50;99.90;;;;;;5003495;28;20270;-81
2022/05/10 10:48:45;;;;;;;1.45;1.23;;;27.40;99.90;;;;;;5002254;28;20576;-81
2022/05/10 10:51:11;;;;;;;1.75;1.65;;;27.30;99.90;;;;;;5005590;28;20709;-83
2022/05/10 10:53:38;;;;;;;1.37;1.27;;;27.30;99.90;;;;;;5008404;28;20759;-81
2022/05/10 10:56:33;;;;;;;0.90;0.90;;;27.60;99.90;;;;;;5004505;28;20188;-81
2022/05/10 10:59:20;;;;;;;1.58;1.48;;;27.90;99.90;;;;;;5002668;28;20718;-80
2022/05/10 11:02:05;;;;;;;0.95;0.68;;;27.80;99.90;;;;;;5003261;28;20230;-81
2022/05/10 11:05:09;;;;;;;1.45;1.08;;;27.80;99.90;;;;;;4999848;28;20323;-81
2022/05/10 11:07:52;;;;;;;1.63;1.07;;;28.10;99.90;;;;;;5018782;28;20199;-80
2022/05/10 11:10:23;;;;;;;1.60;1.42;;;27.90;99.90;;;;;;5003391;28;20778;-81
2022/05/10 11:13:12;;;;;;;0.95;0.95;;;27.80;99.90;;;;;;5006920;28;20250;-84
2022/05/10 11:15:48;;;;;;;1.38;1.27;;;27.80;99.90;;;;;;5016644;28;20194;-84
2022/05/10 11:18:33;;;;;;;1.20;1.10;;;27.50;99.90;;;;;;5003093;28;20187;-84
2022/05/10 11:21:19;;;;;;;1.23;1.15;;;28.10;99.90;;;;;;4998481;28;20171;-84
2022/05/10 11:24:13;;;;;;;1.08;1.08;;;28.20;99.90;;;;;;5001259;28;20211;-84
2022/05/10 11:27:03;;;;;;;1.08;0.98;;;28.40;99.90;;;;;;5000137;28;20719;-84
2022/05/10 11:29:34;;;;;;;1.13;1.10;;;28.50;99.90;;;;;;5006951;28;20187;-84
2022/05/10 11:32:21;;;;;;;1.50;1.40;;;28.50;99.90;;;;;;5001135;28;20607;-83
2022/05/10 11:34:58;;;;;;;0.82;0.82;;;28.50;99.90;;;;;;5002522;28;20224;-83
2022/05/10 11:37:35;;;;;;;1.45;1.25;;;28.70;99.90;;;;;;5002865;28;20215;-83
2022/05/10 11:40:27;;;;;;;5.97;3.92;;;28.80;99.90;;;;;;5002571;28;20171;-83
2022/05/10 11:43:27;;;;;;;1.25;1.15;;;28.70;99.90;;;;;;5013158;28;20210;-82
2022/05/10 11:45:59;;;;;;;2.72;2.53;;;28.40;99.90;;;;;;5004832;28;20206;-81
2022/05/10 11:48:51;;;;;;;1.45;1.33;;;28.50;99.90;;;;;;4999000;28;20183;-84
2022/05/10 11:51:38;;;;;;;1.30;1.20;;;28.60;99.90;;;;;;5014420;28;20253;-84
2022/05/10 11:54:38;;;;;;;3.08;1.38;;;28.70;99.90;;;;;;5015168;28;21327;-82
2022/05/10 11:57:08;;;;;;;2.70;1.73;;;28.90;99.90;;;;;;5000011;28;20266;-84
2022/05/10 11:59:37;;;;;;;0.90;0.90;;;28.90;99.90;;;;;;4997507;28;20186;-84
2022/05/10 12:02:05;;;;;;;1.00;0.88;;;28.90;99.90;;;;;;4998305;28;20189;-84
2022/05/10 12:04:48;;;;;;;2.30;1.42;;;29.10;99.90;;;;;;5003963;28;20221;-82
2022/05/10 12:07:20;;;;;;;1.90;1.42;;;28.60;99.90;;;;;;5004507;28;20297;-82
2022/05/10 12:09:52;;;;;;;0.90;0.90;;;28.50;99.90;;;;;;5014918;28;20176;-81
2022/05/10 12:12:33;;;;;;;1.17;0.73;;;28.50;99.90;;;;;;4999967;28;20207;-82
2022/05/10 12:21:19;;;;;;;1.70;1.48;;;28.60;99.90;;;;;;5005016;28;20199;-81
2022/05/10 12:21:22;;;;;;;1.25;1.13;;;28.80;99.90;;;;;;5003962;28;20269;-81
2022/05/10 12:24:11;;;;;;;1.27;1.02;;;28.70;99.90;;;;;;4999743;28;20211;-81
2022/05/10 12:26:48;;;;;;;1.95;1.27;;;28.70;99.90;;;;;;5000433;28;20176;-81
2022/05/10 12:29:35;;;;;;;3.63;1.40;;;28.80;99.90;;;;;;5000431;28;21195;-81
2022/05/10 12:32:32;;;;;;;2.00;1.40;;;28.90;99.90;;;;;;4999090;28;20244;-81
2022/05/10 12:35:27;;;;;;;1.70;1.60;;;28.80;99.90;;;;;;4997958;28;20233;-81
2022/05/10 12:37:58;;;;;;;0.60;0.60;;;29.10;99.90;;;;;;4999771;28;20183;-81
2022/05/10 12:40:32;;;;;;;0.93;0.93;;;29.40;99.90;;;;;;5004585;28;20233;-81
2022/05/10 12:42:57;;;;;;;0.88;0.85;;;29.40;99.90;;;;;;5000018;28;20238;-80
2022/05/10 12:45:38;;;;;;;1.83;1.65;;;29.10;99.90;;;;;;4999403;28;20195;-81
2022/05/10 12:48:26;;;;;;;2.78;1.38;;;28.80;99.90;;;;;;5015723;28;20175;-81
2022/05/10 12:51:29;;;;;;;1.00;0.90;;;28.80;99.90;;;;;;4998749;28;20191;-81
2022/05/10 12:54:19;;;;;;;1.52;1.15;;;28.90;99.90;;;;;;4998312;28;20242;-81
2022/05/10 12:56:53;;;;;;;0.82;0.82;;;29.00;99.90;;;;;;4997133;28;20972;-81
2022/05/10 12:59:28;;;;;;;3.00;1.30;;;28.50;99.90;;;;;;5000017;28;20190;-81
2022/05/10 13:01:57;;;;;;;1.60;1.50;;;28.60;99.90;;;;;;5014884;28;20270;-80
2022/05/10 13:04:27;;;;;;;2.85;1.13;;;28.90;99.90;;;;;;5007483;28;20225;-82
2022/05/10 13:07:20;;;;;;;3.97;1.20;;;29.10;99.90;;;;;;5014351;28;20681;-82
2022/05/10 13:10:08;;;;;;;1.08;1.08;;;29.10;99.90;;;;;;4998004;28;20217;-82
2022/05/10 13:12:43;;;;;;;1.00;0.90;;;29.10;99.90;;;;;;4998985;28;20211;-82
2022/05/10 13:15:11;;;;;;;1.35;1.25;;;29.10;99.90;;;;;;5003693;28;20587;-83
2022/05/10 13:17:41;;;;;;;1.35;1.08;;;29.00;99.90;;;;;;5000463;28;20187;-83
2022/05/10 13:20:10;;;;;;;1.55;1.45;;;28.90;99.90;;;;;;5016336;28;20183;-83
2022/05/10 13:22:37;;;;;;;1.95;1.58;;;28.90;99.90;;;;;;4997671;28;20188;-83
2022/05/10 13:25:07;;;;;;;5.40;1.77;;;28.90;99.90;;;;;;5004914;28;20582;-83
2022/05/10 13:27:35;;;;;;;1.30;1.08;;;29.00;99.90;;;;;;5003989;28;20195;-82
2022/05/10 13:30:22;;;;;;;1.38;1.27;;;29.20;99.90;;;;;;4998312;28;21120;-82